FW6942 Weather Reports


Display with metric or nautical units.
time (UTC)temp
F
wind
direction
speed
MPH
gust
MPH
rain 1hr
in
rain 24hr
in
rain mn
in
humidity
%
barometer
mb
20200707144837 74 17 1.0 10.0 0.00 0.00 0.00 54 1015.2
20200707144342 75 1 1.0 10.0 0.00 0.00 0.00 54 1015.3
20200707143815 75 4 1.0 5.0 0.00 0.00 0.00 58 1015.3
20200707143317 75 0 1.0 5.0 0.00 0.00 0.00 53 1015.3
20200707142809 75 68 1.0 5.0 0.00 0.00 0.00 55 1015.3
20200707142305 76 288 1.0 4.0 0.00 0.00 0.00 55 1015.4
20200707141806 75 199 1.0 4.0 0.00 0.00 0.00 58 1015.3
20200707141245 73 38 1.0 4.0 0.00 0.00 0.00 58 1015.1
20200707140746 74 190 0.0 5.0 0.00 0.00 0.00 58 1015.2
20200707140233 74 21 1.0 5.0 0.00 0.00 0.00 58 1015.2
20200707135736 74 34 1.0 6.0 0.00 0.00 0.00 54 1015.2
20200707135236 75 51 1.0 6.0 0.00 0.00 0.00 54 1015.3
20200707134732 74 349 1.0 5.0 0.00 0.00 0.00 56 1015.2
20200707134229 74 1 1.0 5.0 0.00 0.00 0.00 54 1015.6
20200707133715 74 359 2.0 7.0 0.00 0.00 0.00 56 1015.4
20200707133214 73 15 2.0 7.0 0.00 0.00 0.00 57 1015.3
20200707132717 74 359 1.0 6.0 0.00 0.00 0.00 55 1015.3
20200707132214 74 24 0.0 1.0 0.00 0.00 0.00 56 1015.4
20200707131715 75 218 0.0 4.0 0.00 0.00 0.00 58 1015.6
20200707131252 75 66 1.0 9.0 0.00 0.00 0.00 53 1015.4
20200707130710 75 25 1.0 9.0 0.00 0.00 0.00 57 1015.6
20200707130206 74 12 0.0 5.0 0.00 0.00 0.00 55 1015.4
20200707125707 74 68 1.0 6.0 0.00 0.00 0.00 59 1015.3
20200707125208 74 344 1.0 6.0 0.00 0.00 0.00 55 1015.3
20200707124707 74 27 0.0 6.0 0.00 0.00 0.00 56 1015.3
20200707124207 74 223 1.0 9.0 0.00 0.00 0.00 57 1015.2
20200707123701 74 193 1.0 9.0 0.00 0.00 0.00 56 1015.3
20200707123140 75 196 1.0 4.0 0.00 0.00 0.00 58 1015.4
20200707122637 75 299 1.0 7.0 0.00 0.00 0.00 57 1015.8
20200707122137 74 332 2.0 7.0 0.00 0.00 0.00 56 1015.7
20200707121632 73 18 1.0 7.0 0.00 0.00 0.00 56 1015.7
20200707121137 74 354 1.0 7.0 0.00 0.00 0.00 54 1015.4
20200707120635 74 155 2.0 7.0 0.00 0.00 0.00 58 1015.6
20200707120124 75 34 1.0 4.0 0.00 0.00 0.00 55 1015.7
20200707115619 75 39 0.0 4.0 0.00 0.00 0.00 58 1015.8
20200707115117 74 222 1.0 7.0 0.00 0.00 0.00 58 1015.7
20200707114553 74 8 1.0 7.0 0.00 0.00 0.00 61 1015.7
20200707114055 74 337 1.0 4.0 0.00 0.00 0.00 58 1015.7
20200707113543 74 69 1.0 7.0 0.00 0.00 0.00 61 1015.6
20200707113036 74 181 1.0 7.0 0.00 0.00 0.00 60 1015.6
20200707112534 74 346 1.0 6.0 0.00 0.00 0.00 65 1015.9
20200707112037 73 24 1.0 9.0 0.00 0.00 0.00 58 1015.7
20200707111513 74 347 1.0 9.0 0.00 0.00 0.00 58 1015.8
20200707111004 74 348 1.0 6.0 0.00 0.00 0.00 59 1015.8
20200707110504 74 198 1.0 6.0 0.00 0.00 0.00 60 1015.8
20200707110001 73 223 1.0 7.0 0.00 0.00 0.00 60 1015.7
20200707105502 73 1 1.0 7.0 0.00 0.00 0.00 61 1015.8
20200707104951 72 2 1.0 5.0 0.00 0.00 0.00 63 1015.7
20200707104445 72 314 1.0 5.0 0.00 0.00 0.00 61 1015.7
20200707103946 73 27 1.0 5.0 0.00 0.00 0.00 64 1016.1
20200707103448 71 1 0.0 3.0 0.00 0.00 0.00 67 1016.0
20200707102934 70 77 1.0 9.0 0.00 0.00 0.00 68 1015.8
20200707102437 70 359 2.0 10.0 0.00 0.00 0.00 65 1015.6
20200707101923 70 34 1.0 10.0 0.00 0.00 0.00 66 1015.6
20200707101431 70 178 0.0 6.0 0.00 0.00 0.00 67 1015.7
20200707100910 70 28 0.0 6.0 0.00 0.00 0.00 66 1015.2
20200707100418 71 86 1.0 6.0 0.00 0.00 0.00 65 1015.3
20200707095901 71 339 1.0 6.0 0.00 0.00 0.00 65 1015.2
20200707095409 70 30 1.0 6.0 0.00 0.00 0.00 66 1015.1
20200707094857 71 7 1.0 6.0 0.00 0.00 0.00 65 1015.2
20200707094406 72 17 1.0 0.0 0.00 0.00 0.00 64 1015.3
20200707094113 73 346 1.0 7.0 0.00 0.00 0.00 60 1015.4
20200707093800 74 41 1.0 5.0 0.00 0.00 0.00 61 1015.4
20200707093503 73 6 1.0 6.0 0.00 0.00 0.00 63 1015.4
20200707093213 73 21 1.0 6.0 0.00 0.00 0.00 62 1015.4
20200707092902 73 297 1.0 7.0 0.00 0.00 0.00 64 1015.4
20200707092713 73 33 1.0 7.0 0.00 0.00 0.00 62 1015.4
20200707092431 73 27 1.0 8.0 0.00 0.00 0.00 63 1015.3
20200707092230 73 350 1.0 12.0 0.00 0.00 0.00 62 1015.3
20200707092026 73 349 1.0 12.0 0.00 0.00 0.00 63 1015.1
20200707091611 73 352 0.0 4.0 0.00 0.00 0.00 64 1014.9
20200707091406 73 79 0.0 3.0 0.00 0.00 0.00 56 1014.9
20200707091206 73 359 1.0 5.0 0.00 0.00 0.00 54 1014.9
20200707090929 73 256 1.0 5.0 0.00 0.00 0.00 50 1014.9
20200707090729 73 38 0.0 2.0 0.00 0.00 0.00 44 1014.9
20200707090505 72 34 0.0 2.0 0.00 0.00 0.00 47 1014.8
20200706192728 75 248 0.0 2.0 0.00 0.00 0.00 65 1007.1
20200706182425 75 295 0.0 0.0 0.00 0.00 0.00 83 1006.6
20200706181920 75 295 0.0 0.0 0.00 0.00 0.00 83 1006.6
20200706181413 75 295 0.0 0.0 0.00 0.00 0.00 82 1006.7
20200706180909 76 295 0.0 0.0 0.00 0.00 0.00 82 1006.8
20200706180405 76 295 0.0 0.0 0.00 0.00 0.00 81 1006.8
20200706175859 76 295 0.0 0.0 0.00 0.00 0.00 81 1006.8
20200706175315 76 295 0.0 0.0 0.00 0.00 0.00 80 1006.8
20200706174803 76 295 0.0 0.0 0.00 0.00 0.00 79 1006.9
20200706174259 77 295 0.0 0.0 0.00 0.00 0.00 78 1006.8
20200706173753 77 295 0.0 0.0 0.00 0.00 0.00 78 1006.8
20200706173239 78 295 0.0 0.0 0.00 0.00 0.00 77 1006.9
20200706172732 78 295 0.0 0.0 0.00 0.00 0.00 76 1007.0
20200706172231 79 295 0.0 0.0 0.00 0.00 0.00 75 1007.0
20200706171715 79 295 0.0 0.0 0.00 0.00 0.00 75 1007.1
20200706171202 80 295 0.0 0.0 0.00 0.00 0.00 74 1007.2
20200706170658 80 295 0.0 0.0 0.00 0.00 0.00 73 1007.3
20200706170147 80 295 0.0 1.0 0.00 0.00 0.00 71 1007.3
20200706165647 80 295 0.0 1.0 0.00 0.00 0.00 70 1007.4
20200706165130 80 39 0.0 1.0 0.00 0.00 0.00 69 1007.4
20200706164619 80 43 0.0 4.0 0.00 0.00 0.00 69 1007.4
20200706164119 80 48 0.0 4.0 0.00 0.00 0.00 69 1007.4
20200706163618 80 237 0.0 1.0 0.00 0.00 0.00 71 1007.4
20200706163054 80 1 0.0 1.0 0.00 0.00 0.00 71 1007.4
20200706162057 80 227 0.0 1.0 0.00 0.00 0.00 70 1007.3
20200706161546 80 330 0.0 3.0 0.00 0.00 0.00 70 1007.4
20200706161031 80 348 1.0 4.0 0.00 0.00 0.00 69 1007.8
20200706160531 80 322 0.0 4.0 0.00 0.00 0.00 69 1007.7
20200706160007 80 329 0.0 0.0 0.00 0.00 0.00 69 1007.8
20200706155511 80 329 0.0 0.0 0.00 0.00 0.00 72 1007.8
20200706154948 80 328 0.0 1.0 0.00 0.00 0.00 69 1007.8
20200706154448 81 328 0.0 1.0 0.00 0.00 0.00 69 1007.8
20200706153939 81 359 0.0 1.0 0.00 0.00 0.00 69 1007.8
20200706153440 81 322 0.0 1.0 0.00 0.00 0.00 67 1007.8
20200706152940 82 314 0.0 0.0 0.00 0.00 0.00 68 1007.9
20200706152431 83 312 0.0 1.0 0.00 0.00 0.00 66 1008.0
20200706151925 83 321 0.0 4.0 0.00 0.00 0.00 63 1008.1
20200706151418 83 43 1.0 4.0 0.00 0.00 0.00 64 1008.1
20200706150847 83 40 0.0 3.0 0.00 0.00 0.00 63 1008.1
20200706150346 84 336 0.0 1.0 0.00 0.00 0.00 62 1008.1
20200706145826 83 345 0.0 1.0 0.00 0.00 0.00 64 1008.4
20200706145316 83 234 0.0 1.0 0.00 0.00 0.00 64 1008.4